Time;durP1;ratioP1;P1;durP2;ratioP2;P2;SDS_P1;SDS_P2;PMS_P1;PMS_P2;Temp;Humidity;BMP_temperature;BMP_pressure;BME280_temperature;BME280_humidity;BME280_pressure;Samples;Min_cycle;Max_cycle;Signal;HPM_P1;HPM_P2
2022/04/14 00:00:23;;;;;;;22.93;18.30;;;;;;;;;;5095765;28;20439;-79
2022/04/14 00:02:50;;;;;;;27.33;21.33;;;;;;;;;;5095612;28;20501;-79
2022/04/14 00:05:17;;;;;;;32.97;21.67;;;;;;;;;;5095622;28;20940;-78
2022/04/14 00:07:46;;;;;;;25.07;18.60;;;;;;;;;;5095579;28;20481;-79
2022/04/14 00:10:13;;;;;;;29.10;21.30;;;;;;;;;;5095673;28;20440;-79
2022/04/14 00:12:41;;;;;;;27.27;20.20;;;;;;;;;;5095529;28;20441;-79
2022/04/14 00:15:10;;;;;;;27.80;18.47;;;;;;;;;;5095159;28;20530;-78
2022/04/14 00:17:37;;;;;;;26.50;18.53;;;;;;;;;;5095014;28;21041;-78
2022/04/14 00:20:07;;;;;;;30.60;18.70;;;;;;;;;;5095064;28;20444;-78
2022/04/14 00:22:34;;;;;;;25.67;18.80;;;;;;;;;;5094926;28;20467;-79
2022/04/14 00:25:02;;;;;;;24.43;17.60;;;;;;;;;;5095467;28;20444;-79
2022/04/14 00:27:30;;;;;;;19.20;15.63;;;;;;;;;;5095137;28;20515;-79
2022/04/14 00:29:57;;;;;;;23.43;15.30;;;;;;;;;;5095135;28;20527;-79
2022/04/14 00:32:24;;;;;;;25.20;16.33;;;;;;;;;;5094967;28;20447;-79
2022/04/14 00:34:51;;;;;;;17.47;15.33;;;;;;;;;;5095371;28;20799;-79
2022/04/14 00:37:18;;;;;;;26.27;15.43;;;;;;;;;;5095149;28;20805;-78
2022/04/14 00:39:45;;;;;;;18.90;14.80;;;;;;;;;;5094662;28;20486;-78
2022/04/14 00:42:15;;;;;;;21.33;15.70;;;;;;;;;;5094806;28;20862;-79
2022/04/14 00:44:42;;;;;;;15.10;11.73;;;;;;;;;;5094541;28;20531;-78
2022/04/14 00:47:10;;;;;;;17.73;12.57;;;;;;;;;;5094164;28;20509;-78
2022/04/14 00:49:37;;;;;;;17.67;12.93;;;;;;;;;;5094768;28;20435;-77
2022/04/14 00:52:05;;;;;;;19.30;13.63;;;;;;;;;;5093479;28;20443;-77
2022/04/14 00:54:33;;;;;;;15.77;12.50;;;;;;;;;;5094342;28;20951;-78
2022/04/14 00:57:00;;;;;;;19.90;14.60;;;;;;;;;;5094424;28;20450;-78
2022/04/14 00:59:29;;;;;;;19.80;14.30;;;;;;;;;;5094464;28;20513;-78
2022/04/14 01:01:56;;;;;;;19.20;14.50;;;;;;;;;;5094464;28;20442;-78
2022/04/14 01:04:24;;;;;;;19.77;13.37;;;;;;;;;;5094457;28;20444;-78
2022/04/14 01:06:51;;;;;;;19.70;14.23;;;;;;;;;;5094576;28;20896;-78
2022/04/14 01:09:19;;;;;;;21.23;13.00;;;;;;;;;;5094332;28;20515;-79
2022/04/14 01:11:47;;;;;;;19.30;12.13;;;;;;;;;;5094070;28;20440;-78
2022/04/14 01:14:21;;;;;;;18.60;11.53;;;;;;;;;;5094338;28;20432;-79
2022/04/14 01:16:50;;;;;;;17.50;12.87;;;;;;;;;;5094105;28;20456;-78
2022/04/14 01:19:17;;;;;;;17.73;14.10;;;;;;;;;;5094176;28;20436;-79
2022/04/14 01:21:54;;;;;;;15.43;12.00;;;;;;;;;;5093880;28;20450;-79
2022/04/14 01:24:23;;;;;;;17.50;11.67;;;;;;;;;;5094842;28;20476;-79
2022/04/14 01:26:50;;;;;;;15.50;12.30;;;;;;;;;;5093674;28;20487;-78
2022/04/14 01:29:21;;;;;;;20.27;14.00;;;;;;;;;;5094209;28;20435;-79
2022/04/14 01:31:49;;;;;;;16.20;12.33;;;;;;;;;;5093852;28;20440;-77
2022/04/14 01:34:16;;;;;;;20.53;12.57;;;;;;;;;;5093616;28;20963;-77
2022/04/14 01:36:43;;;;;;;15.20;10.37;;;;;;;;;;5094274;28;20532;-77
2022/04/14 01:39:11;;;;;;;17.40;12.13;;;;;;;;;;5094410;28;20543;-77
2022/04/14 01:41:40;;;;;;;14.97;12.07;;;;;;;;;;5094331;28;20522;-79
2022/04/14 01:44:08;;;;;;;12.97;11.57;;;;;;;;;;5094294;28;20444;-79
2022/04/14 01:46:36;;;;;;;14.87;11.27;;;;;;;;;;5093872;28;20495;-79
2022/04/14 01:49:03;;;;;;;13.40;10.53;;;;;;;;;;5093964;28;20535;-79
2022/04/14 01:51:31;;;;;;;17.60;12.40;;;;;;;;;;5094363;28;20446;-78
2022/04/14 01:53:58;;;;;;;16.60;13.07;;;;;;;;;;5093717;28;20447;-80
2022/04/14 01:56:25;;;;;;;16.50;12.47;;;;;;;;;;5094569;28;20449;-79
2022/04/14 01:58:54;;;;;;;25.60;14.70;;;;;;;;;;5093734;28;20880;-79
2022/04/14 02:01:22;;;;;;;20.53;13.43;;;;;;;;;;5093526;28;20520;-79
2022/04/14 02:03:49;;;;;;;15.70;12.20;;;;;;;;;;5097259;28;20435;-79
2022/04/14 02:06:17;;;;;;;23.13;14.10;;;;;;;;;;5097764;28;20467;-79
2022/04/14 02:08:44;;;;;;;17.13;13.87;;;;;;;;;;5097386;28;20523;-79
2022/04/14 02:11:12;;;;;;;19.07;15.33;;;;;;;;;;5098167;28;20431;-79
2022/04/14 02:13:39;;;;;;;17.00;14.27;;;;;;;;;;5097316;28;20442;-79
2022/04/14 02:16:08;;;;;;;15.80;14.00;;;;;;;;;;5097786;28;20435;-78
2022/04/14 02:18:35;;;;;;;16.80;14.20;;;;;;;;;;5097831;28;20451;-78
2022/04/14 02:21:03;;;;;;;18.83;14.50;;;;;;;;;;5097740;28;20530;-78
2022/04/14 02:23:30;;;;;;;21.97;15.60;;;;;;;;;;5097154;28;20448;-78
2022/04/14 02:25:57;;;;;;;21.50;13.10;;;;;;;;;;5097522;28;20938;-78
2022/04/14 02:28:24;;;;;;;19.83;15.10;;;;;;;;;;5097324;28;20493;-78
2022/04/14 02:30:51;;;;;;;20.50;14.70;;;;;;;;;;5097578;28;20440;-79
2022/04/14 02:33:20;;;;;;;19.60;13.37;;;;;;;;;;5097096;28;20482;-79
2022/04/14 02:35:47;;;;;;;19.77;13.93;;;;;;;;;;5097317;28;20447;-79
2022/04/14 02:38:15;;;;;;;18.03;13.60;;;;;;;;;;5097530;28;20444;-79
2022/04/14 02:40:42;;;;;;;24.87;15.50;;;;;;;;;;5097112;28;20447;-79
2022/04/14 02:43:09;;;;;;;18.80;14.43;;;;;;;;;;5096828;28;20443;-79
2022/04/14 02:45:36;;;;;;;22.70;16.73;;;;;;;;;;5097753;28;20450;-79
2022/04/14 02:48:03;;;;;;;22.23;16.50;;;;;;;;;;5096704;28;20518;-79
2022/04/14 02:50:32;;;;;;;25.00;16.03;;;;;;;;;;5097188;28;20439;-79
2022/04/14 02:52:59;;;;;;;23.67;17.97;;;;;;;;;;5096958;28;20439;-79
2022/04/14 02:55:26;;;;;;;19.67;15.00;;;;;;;;;;5097338;28;20435;-79
2022/04/14 02:57:54;;;;;;;18.13;15.20;;;;;;;;;;5096707;28;20450;-79
2022/04/14 03:00:21;;;;;;;21.70;16.37;;;;;;;;;;5096445;28;20971;-79
2022/04/14 03:02:48;;;;;;;23.90;16.30;;;;;;;;;;5097167;28;20443;-79
2022/04/14 03:05:15;;;;;;;24.17;15.43;;;;;;;;;;5096736;28;20453;-79
2022/04/14 03:07:44;;;;;;;29.93;17.93;;;;;;;;;;5096357;28;20471;-78
2022/04/14 03:10:11;;;;;;;22.70;17.40;;;;;;;;;;5096308;28;20921;-79
2022/04/14 03:12:42;;;;;;;24.67;18.83;;;;;;;;;;5097277;28;20526;-79
2022/04/14 03:15:09;;;;;;;22.93;18.13;;;;;;;;;;5095275;28;20452;-79
2022/04/14 03:17:36;;;;;;;23.50;17.70;;;;;;;;;;5096385;28;20483;-79
2022/04/14 03:20:04;;;;;;;28.20;19.67;;;;;;;;;;5096403;28;20535;-79
2022/04/14 03:22:34;;;;;;;24.57;18.13;;;;;;;;;;5096065;28;20442;-79
2022/04/14 03:25:03;;;;;;;24.57;18.17;;;;;;;;;;5095821;28;21035;-79
2022/04/14 03:27:30;;;;;;;28.70;18.87;;;;;;;;;;5095820;28;21018;-79
2022/04/14 03:29:57;;;;;;;27.27;18.00;;;;;;;;;;5096152;28;20435;-79
2022/04/14 03:32:25;;;;;;;28.27;18.53;;;;;;;;;;5095965;28;20442;-79
2022/04/14 03:34:52;;;;;;;23.27;17.90;;;;;;;;;;5096251;28;20435;-79
2022/04/14 03:37:19;;;;;;;21.67;17.70;;;;;;;;;;5096582;28;20450;-78
2022/04/14 03:39:47;;;;;;;29.63;18.80;;;;;;;;;;5096201;28;20454;-78
2022/04/14 03:42:15;;;;;;;25.07;18.30;;;;;;;;;;5096535;28;20538;-78
2022/04/14 03:44:43;;;;;;;25.80;18.77;;;;;;;;;;5095630;28;20443;-78
2022/04/14 03:47:10;;;;;;;27.13;18.10;;;;;;;;;;5095707;28;20519;-78
2022/04/14 03:49:37;;;;;;;25.70;18.70;;;;;;;;;;5095899;28;20436;-78
2022/04/14 03:52:05;;;;;;;28.90;18.50;;;;;;;;;;5096366;28;20457;-78
2022/04/14 03:54:32;;;;;;;22.73;17.70;;;;;;;;;;5095855;28;20490;-77
2022/04/14 03:57:00;;;;;;;32.43;17.83;;;;;;;;;;5096374;28;20522;-77
2022/04/14 03:59:28;;;;;;;33.73;19.87;;;;;;;;;;5095375;28;20454;-79
2022/04/14 04:01:55;;;;;;;30.20;17.77;;;;;;;;;;5095759;28;20450;-79
2022/04/14 04:04:22;;;;;;;27.40;17.43;;;;;;;;;;5095402;28;20447;-79
2022/04/14 04:06:50;;;;;;;23.73;16.90;;;;;;;;;;5095764;28;20523;-79
2022/04/14 04:09:17;;;;;;;27.80;18.07;;;;;;;;;;5095726;28;20542;-79
2022/04/14 04:11:44;;;;;;;24.07;18.20;;;;;;;;;;5095538;28;20440;-79
2022/04/14 04:14:11;;;;;;;24.87;19.57;;;;;;;;;;5095138;28;20866;-79
2022/04/14 04:16:40;;;;;;;23.53;16.57;;;;;;;;;;5095473;28;20921;-79
2022/04/14 04:19:07;;;;;;;24.47;17.20;;;;;;;;;;5095171;28;20493;-78
2022/04/14 04:21:34;;;;;;;22.33;16.77;;;;;;;;;;5095386;28;20439;-78
2022/04/14 04:24:02;;;;;;;23.97;18.77;;;;;;;;;;5095583;28;20446;-80
2022/04/14 04:26:29;;;;;;;27.40;18.17;;;;;;;;;;5095051;28;20436;-79
2022/04/14 04:28:57;;;;;;;29.20;19.57;;;;;;;;;;5095520;28;20487;-78
2022/04/14 04:31:24;;;;;;;29.20;19.90;;;;;;;;;;5095205;28;20439;-79
2022/04/14 04:33:53;;;;;;;26.20;19.70;;;;;;;;;;5095277;28;20439;-78
2022/04/14 04:36:20;;;;;;;25.83;18.10;;;;;;;;;;5093660;28;20443;-78
2022/04/14 04:38:47;;;;;;;27.17;18.07;;;;;;;;;;5094138;28;20458;-78
2022/04/14 04:41:15;;;;;;;27.57;18.13;;;;;;;;;;5094130;28;20521;-78
2022/04/14 04:43:42;;;;;;;27.00;18.90;;;;;;;;;;5093960;28;20447;-78
2022/04/14 04:46:09;;;;;;;27.60;18.20;;;;;;;;;;5093918;28;20474;-78
2022/04/14 04:48:37;;;;;;;27.03;18.13;;;;;;;;;;5093841;28;20460;-80
2022/04/14 04:51:05;;;;;;;29.50;18.30;;;;;;;;;;5093995;28;20438;-81
2022/04/14 04:53:32;;;;;;;27.80;18.40;;;;;;;;;;5094040;28;20451;-79
2022/04/14 04:55:59;;;;;;;31.67;20.93;;;;;;;;;;5094005;28;20535;-79
2022/04/14 04:58:27;;;;;;;27.13;18.90;;;;;;;;;;5093849;28;20803;-80
2022/04/14 05:00:54;;;;;;;29.80;17.00;;;;;;;;;;5093753;28;20439;-79
2022/04/14 05:03:22;;;;;;;29.33;19.30;;;;;;;;;;5093544;28;20488;-78
2022/04/14 05:05:49;;;;;;;27.77;19.37;;;;;;;;;;5093407;28;20446;-79
2022/04/14 05:08:18;;;;;;;31.30;18.80;;;;;;;;;;5093525;28;20474;-78
2022/04/14 05:10:45;;;;;;;25.07;19.10;;;;;;;;;;5093950;28;20812;-80
2022/04/14 05:13:12;;;;;;;30.00;21.10;;;;;;;;;;5094367;28;20450;-81
2022/04/14 05:15:39;;;;;;;31.10;20.70;;;;;;;;;;5094534;28;20439;-76
2022/04/14 05:18:07;;;;;;;33.60;20.80;;;;;;;;;;5094515;28;20442;-71
2022/04/14 05:20:35;;;;;;;31.63;18.53;;;;;;;;;;5094172;28;20448;-71
2022/04/14 05:23:03;;;;;;;31.93;19.80;;;;;;;;;;5094208;28;20451;-71
2022/04/14 05:25:31;;;;;;;26.20;20.27;;;;;;;;;;5094662;28;20447;-70
2022/04/14 05:27:58;;;;;;;34.80;21.97;;;;;;;;;;5093567;28;20498;-71
2022/04/14 05:30:26;;;;;;;32.17;19.83;;;;;;;;;;5093548;28;20933;-71
2022/04/14 05:32:53;;;;;;;31.27;19.37;;;;;;;;;;5093985;28;20440;-71
2022/04/14 05:35:21;;;;;;;30.40;20.10;;;;;;;;;;5093562;28;20454;-72
2022/04/14 05:37:48;;;;;;;37.47;21.50;;;;;;;;;;5093523;28;20779;-71
2022/04/14 05:40:15;;;;;;;38.00;22.07;;;;;;;;;;5093363;28;20442;-72
2022/04/14 05:42:46;;;;;;;32.20;21.40;;;;;;;;;;5093836;28;20510;-72
2022/04/14 05:45:13;;;;;;;39.37;21.40;;;;;;;;;;5093949;28;20427;-72
2022/04/14 05:47:41;;;;;;;35.47;22.50;;;;;;;;;;5093169;28;20479;-72
2022/04/14 05:50:08;;;;;;;41.87;24.67;;;;;;;;;;5093597;28;20534;-72
2022/04/14 05:52:35;;;;;;;50.93;27.17;;;;;;;;;;5094052;28;20446;-71
2022/04/14 05:55:02;;;;;;;50.17;28.83;;;;;;;;;;5093525;28;20440;-72
2022/04/14 05:57:30;;;;;;;56.30;31.60;;;;;;;;;;5094157;28;20443;-72
2022/04/14 05:59:59;;;;;;;51.87;29.27;;;;;;;;;;5093160;28;20443;-72
2022/04/14 06:02:26;;;;;;;69.27;35.70;;;;;;;;;;5093311;28;20446;-72
2022/04/14 06:04:54;;;;;;;78.13;38.83;;;;;;;;;;5093534;28;20532;-72
2022/04/14 06:07:21;;;;;;;80.57;38.33;;;;;;;;;;5093512;28;20465;-72
2022/04/14 06:09:48;;;;;;;65.80;37.90;;;;;;;;;;5093601;28;20453;-72
2022/04/14 06:12:15;;;;;;;73.27;38.93;;;;;;;;;;5093122;28;20450;-72
2022/04/14 06:14:42;;;;;;;78.83;38.40;;;;;;;;;;5093547;28;20450;-72
2022/04/14 06:17:11;;;;;;;78.73;41.40;;;;;;;;;;5093440;28;20440;-72
2022/04/14 06:19:38;;;;;;;81.57;41.90;;;;;;;;;;5093422;28;20546;-72
2022/04/14 06:22:06;;;;;;;89.83;45.67;;;;;;;;;;5093116;28;20921;-72
2022/04/14 06:24:33;;;;;;;84.37;41.30;;;;;;;;;;5093698;28;20443;-71
2022/04/14 06:27:00;;;;;;;97.13;48.40;;;;;;;;;;5093496;28;20440;-72
2022/04/14 06:29:27;;;;;;;83.93;43.80;;;;;;;;;;5093667;28;20484;-72
2022/04/14 06:31:55;;;;;;;91.70;44.60;;;;;;;;;;5093605;28;20442;-72
2022/04/14 06:34:24;;;;;;;111.27;48.17;;;;;;;;;;5093882;28;20497;-71
2022/04/14 06:36:51;;;;;;;97.57;45.67;;;;;;;;;;5093013;28;20531;-72
2022/04/14 06:39:18;;;;;;;90.90;44.40;;;;;;;;;;5093332;28;20447;-72
2022/04/14 06:41:45;;;;;;;96.23;45.60;;;;;;;;;;5093471;28;20804;-72
2022/04/14 06:44:12;;;;;;;97.70;44.83;;;;;;;;;;5093693;28;20498;-72
2022/04/14 06:46:40;;;;;;;100.70;41.70;;;;;;;;;;5092776;28;20472;-72
2022/04/14 06:49:07;;;;;;;94.90;45.00;;;;;;;;;;5095360;28;20501;-72
2022/04/14 06:51:35;;;;;;;88.73;43.90;;;;;;;;;;5096651;28;20925;-73
2022/04/14 06:54:03;;;;;;;81.57;43.17;;;;;;;;;;5097263;28;20446;-72
2022/04/14 06:56:30;;;;;;;85.33;42.50;;;;;;;;;;5096521;28;20442;-72
2022/04/14 06:58:57;;;;;;;80.67;43.23;;;;;;;;;;5097268;28;20451;-72
2022/04/14 07:01:24;;;;;;;79.73;42.40;;;;;;;;;;5096292;28;20530;-73
2022/04/14 07:03:51;;;;;;;77.87;38.93;;;;;;;;;;5096490;28;20451;-73
2022/04/14 07:06:19;;;;;;;71.53;41.43;;;;;;;;;;5096645;28;20443;-72
2022/04/14 07:08:47;;;;;;;74.03;40.13;;;;;;;;;;5096218;28;20567;-72
2022/04/14 07:11:16;;;;;;;73.33;40.97;;;;;;;;;;5096459;28;20447;-71
2022/04/14 07:13:43;;;;;;;73.60;39.30;;;;;;;;;;5096878;28;20851;-71
2022/04/14 07:16:10;;;;;;;70.00;37.10;;;;;;;;;;5096137;28;20443;-71
2022/04/14 07:18:38;;;;;;;71.60;39.27;;;;;;;;;;5096582;28;20441;-71
2022/04/14 07:21:06;;;;;;;69.40;41.67;;;;;;;;;;5096759;28;20916;-72
2022/04/14 07:23:33;;;;;;;68.23;39.57;;;;;;;;;;5096367;28;20447;-71
2022/04/14 07:26:01;;;;;;;64.97;38.53;;;;;;;;;;5096488;28;20446;-71
2022/04/14 07:28:29;;;;;;;69.63;38.30;;;;;;;;;;5095844;28;20483;-71
2022/04/14 07:30:56;;;;;;;69.03;38.13;;;;;;;;;;5096078;28;20530;-72
2022/04/14 07:33:23;;;;;;;70.60;39.83;;;;;;;;;;5095845;28;20435;-72
2022/04/14 07:35:52;;;;;;;72.50;41.10;;;;;;;;;;5096339;28;20443;-72
2022/04/14 07:38:20;;;;;;;74.90;42.00;;;;;;;;;;5095782;28;20508;-72
2022/04/14 07:40:48;;;;;;;68.13;39.47;;;;;;;;;;5096523;28;20440;-73
2022/04/14 07:43:18;;;;;;;73.23;39.77;;;;;;;;;;5096114;28;20534;-72
2022/04/14 07:45:45;;;;;;;79.83;39.57;;;;;;;;;;5096171;28;20440;-72
2022/04/14 07:48:13;;;;;;;72.03;42.17;;;;;;;;;;5095817;28;20471;-72
2022/04/14 07:50:40;;;;;;;70.73;42.53;;;;;;;;;;5095937;28;20527;-72
2022/04/14 07:53:08;;;;;;;77.13;42.67;;;;;;;;;;5095793;28;20523;-72
2022/04/14 07:55:36;;;;;;;81.47;42.47;;;;;;;;;;5095609;28;20440;-73
2022/04/14 07:58:10;;;;;;;81.23;42.93;;;;;;;;;;5095562;28;20535;-72
2022/04/14 08:00:39;;;;;;;75.50;42.77;;;;;;;;;;5095432;28;20467;-72
2022/04/14 08:03:07;;;;;;;76.37;42.50;;;;;;;;;;5095106;28;20440;-73
2022/04/14 08:05:35;;;;;;;82.90;42.77;;;;;;;;;;5095577;28;20614;-72
2022/04/14 08:08:02;;;;;;;81.90;44.03;;;;;;;;;;5095055;28;20444;-71
2022/04/14 08:10:29;;;;;;;83.17;44.70;;;;;;;;;;5094992;28;20450;-71
2022/04/14 08:12:57;;;;;;;77.10;42.70;;;;;;;;;;5095549;28;20443;-72
2022/04/14 08:15:24;;;;;;;79.33;45.63;;;;;;;;;;5095450;28;20444;-71
2022/04/14 08:17:53;;;;;;;69.43;41.63;;;;;;;;;;5094935;28;20513;-71
2022/04/14 08:20:20;;;;;;;75.83;42.43;;;;;;;;;;5095292;28;20443;-71
2022/04/14 08:22:48;;;;;;;79.57;44.63;;;;;;;;;;5095129;28;20441;-71
2022/04/14 08:25:16;;;;;;;75.47;43.33;;;;;;;;;;5095592;28;20932;-71
2022/04/14 08:27:43;;;;;;;75.43;43.40;;;;;;;;;;5095076;28;20456;-72
2022/04/14 08:30:12;;;;;;;73.73;43.80;;;;;;;;;;5095607;28;20476;-71
2022/04/14 08:32:40;;;;;;;73.83;43.10;;;;;;;;;;5094806;28;20440;-71
2022/04/14 08:35:09;;;;;;;78.27;47.43;;;;;;;;;;5094765;28;20921;-71
2022/04/14 08:37:36;;;;;;;76.37;45.50;;;;;;;;;;5094178;28;20856;-71
2022/04/14 08:40:06;;;;;;;73.83;41.07;;;;;;;;;;5094973;28;20445;-71
2022/04/14 08:42:37;;;;;;;64.17;39.07;;;;;;;;;;5094363;28;20532;-71
2022/04/14 08:45:09;;;;;;;75.67;43.90;;;;;;;;;;5094638;28;20437;-71
2022/04/14 08:47:39;;;;;;;70.87;41.43;;;;;;;;;;5095174;28;20525;-72
2022/04/14 08:50:07;;;;;;;63.93;39.67;;;;;;;;;;5094998;28;20504;-71
2022/04/14 08:52:37;;;;;;;67.13;38.47;;;;;;;;;;5094863;28;20471;-72
2022/04/14 08:55:05;;;;;;;63.30;39.70;;;;;;;;;;5095107;28;20435;-71
2022/04/14 08:57:35;;;;;;;61.20;37.67;;;;;;;;;;5094608;28;20452;-71
2022/04/14 09:00:02;;;;;;;70.70;42.47;;;;;;;;;;5094749;28;20540;-72
2022/04/14 09:02:31;;;;;;;67.87;42.20;;;;;;;;;;5094081;28;20529;-72
2022/04/14 09:04:58;;;;;;;57.77;35.53;;;;;;;;;;5094296;28;20471;-72
2022/04/14 09:07:26;;;;;;;62.43;35.50;;;;;;;;;;5093871;28;20437;-71
2022/04/14 09:09:54;;;;;;;61.80;37.00;;;;;;;;;;5094370;28;20472;-71
2022/04/14 09:12:22;;;;;;;56.37;36.30;;;;;;;;;;5093063;28;20444;-71
2022/04/14 09:14:49;;;;;;;53.87;35.67;;;;;;;;;;5094238;28;20450;-72
2022/04/14 09:17:17;;;;;;;56.93;34.27;;;;;;;;;;5093895;28;20472;-71
2022/04/14 09:19:44;;;;;;;56.73;33.50;;;;;;;;;;5093828;28;20446;-72
2022/04/14 09:22:12;;;;;;;54.40;34.23;;;;;;;;;;5094397;28;20452;-72
2022/04/14 09:24:40;;;;;;;47.97;30.70;;;;;;;;;;5093919;28;20459;-72
2022/04/14 09:27:09;;;;;;;53.67;32.37;;;;;;;;;;5093914;28;20536;-72
2022/04/14 09:29:36;;;;;;;54.03;32.53;;;;;;;;;;5093677;28;21046;-71
2022/04/14 09:32:03;;;;;;;56.77;34.50;;;;;;;;;;5093660;28;20436;-71
2022/04/14 09:34:45;;;;;;;53.67;33.33;;;;;;;;;;5093922;28;20932;-72
2022/04/14 09:37:13;;;;;;;49.20;31.27;;;;;;;;;;5093626;28;20501;-72
2022/04/14 09:39:53;;;;;;;48.90;30.70;;;;;;;;;;5094033;28;20518;-72
2022/04/14 09:42:23;;;;;;;47.43;31.83;;;;;;;;;;5093912;28;20838;-72
2022/04/14 09:44:51;;;;;;;45.77;29.07;;;;;;;;;;5093792;28;20444;-71
2022/04/14 09:47:25;;;;;;;53.57;30.43;;;;;;;;;;5094184;28;20476;-71
2022/04/14 09:49:52;;;;;;;41.13;29.80;;;;;;;;;;5093713;28;20468;-72
2022/04/14 09:52:19;;;;;;;35.67;24.77;;;;;;;;;;5093725;28;20538;-72
2022/04/14 09:54:48;;;;;;;34.23;24.07;;;;;;;;;;5093579;28;20939;-72
2022/04/14 09:57:17;;;;;;;41.70;26.03;;;;;;;;;;5093897;28;20472;-72
2022/04/14 09:59:45;;;;;;;38.53;26.03;;;;;;;;;;5093601;28;20531;-72
2022/04/14 10:02:13;;;;;;;37.20;25.17;;;;;;;;;;5093672;28;20437;-72
2022/04/14 10:04:42;;;;;;;36.00;24.67;;;;;;;;;;5093560;28;20936;-71
2022/04/14 10:07:10;;;;;;;40.20;25.63;;;;;;;;;;5093598;28;20601;-72
2022/04/14 10:09:39;;;;;;;34.07;23.87;;;;;;;;;;5093680;28;20501;-71
2022/04/14 10:12:06;;;;;;;36.23;25.00;;;;;;;;;;5093629;28;20446;-71
2022/04/14 10:14:33;;;;;;;29.70;21.27;;;;;;;;;;5093494;28;20451;-72
2022/04/14 10:17:05;;;;;;;32.20;22.67;;;;;;;;;;5093214;28;20448;-72
2022/04/14 10:19:32;;;;;;;31.40;23.03;;;;;;;;;;5093640;28;20890;-72
2022/04/14 10:22:00;;;;;;;28.20;21.50;;;;;;;;;;5093474;28;20512;-72
2022/04/14 10:24:28;;;;;;;31.17;20.80;;;;;;;;;;5095943;28;20486;-72
2022/04/14 10:26:55;;;;;;;36.83;23.77;;;;;;;;;;5096597;28;21006;-72
2022/04/14 10:29:25;;;;;;;25.17;17.60;;;;;;;;;;5097337;28;20478;-72
2022/04/14 10:31:54;;;;;;;25.43;18.80;;;;;;;;;;5096855;28;20434;-72
2022/04/14 10:34:23;;;;;;;25.63;18.23;;;;;;;;;;5097038;28;20449;-72
2022/04/14 10:36:51;;;;;;;24.33;17.70;;;;;;;;;;5098173;28;20553;-72
2022/04/14 10:39:20;;;;;;;27.43;18.83;;;;;;;;;;5096832;28;20445;-72
2022/04/14 10:41:48;;;;;;;25.47;17.70;;;;;;;;;;5097198;28;20454;-72
2022/04/14 10:44:16;;;;;;;33.20;19.30;;;;;;;;;;5096772;28;20786;-73
2022/04/14 10:46:47;;;;;;;27.20;18.10;;;;;;;;;;5096856;28;20465;-72
2022/04/14 10:49:15;;;;;;;28.77;20.73;;;;;;;;;;5097400;28;20812;-73
2022/04/14 10:51:44;;;;;;;23.73;18.10;;;;;;;;;;5097504;28;20522;-72
2022/04/14 10:54:12;;;;;;;24.97;19.77;;;;;;;;;;5097334;28;20534;-72
2022/04/14 10:56:50;;;;;;;25.60;17.90;;;;;;;;;;5096689;28;20440;-72
2022/04/14 10:59:18;;;;;;;28.23;19.20;;;;;;;;;;5096977;28;20989;-72
2022/04/14 11:02:05;;;;;;;27.90;19.57;;;;;;;;;;5096644;28;20443;-72
2022/04/14 11:04:51;;;;;;;26.60;18.67;;;;;;;;;;5097086;28;20450;-72
2022/04/14 11:07:21;;;;;;;18.43;15.23;;;;;;;;;;5096421;28;20971;-72
2022/04/14 11:09:53;;;;;;;21.13;17.93;;;;;;;;;;5096369;28;20467;-72
2022/04/14 11:12:21;;;;;;;24.27;19.37;;;;;;;;;;5096680;28;20592;-72
2022/04/14 11:14:52;;;;;;;24.50;16.90;;;;;;;;;;5096538;28;20475;-73
2022/04/14 11:17:40;;;;;;;22.80;15.97;;;;;;;;;;5096566;28;20856;-72
2022/04/14 11:20:13;;;;;;;18.53;14.00;;;;;;;;;;5096319;28;20456;-72
2022/04/14 11:22:55;;;;;;;21.20;15.97;;;;;;;;;;5096222;28;20528;-73
2022/04/14 11:25:50;;;;;;;17.77;14.30;;;;;;;;;;5095698;28;20444;-72
2022/04/14 11:28:24;;;;;;;15.73;12.50;;;;;;;;;;5071697;28;20807;-72
2022/04/14 11:30:52;;;;;;;17.47;12.23;;;;;;;;;;5095483;28;20464;-72
2022/04/14 11:33:25;;;;;;;14.93;10.13;;;;;;;;;;5095551;28;20960;-72
2022/04/14 11:35:52;;;;;;;13.30;10.60;;;;;;;;;;5094673;28;20451;-73
2022/04/14 11:38:38;;;;;;;14.50;11.83;;;;;;;;;;5095084;28;20807;-76
2022/04/14 11:41:05;;;;;;;19.23;12.33;;;;;;;;;;5095358;28;20450;-73
2022/04/14 11:43:36;;;;;;;14.80;10.70;;;;;;;;;;5096146;28;20472;-79
2022/04/14 11:46:05;;;;;;;13.93;11.47;;;;;;;;;;5095153;28;20819;-80
2022/04/14 11:48:32;;;;;;;17.33;11.53;;;;;;;;;;5095809;28;20483;-79
2022/04/14 11:50:59;;;;;;;14.93;10.30;;;;;;;;;;5095651;28;20827;-80
2022/04/14 11:53:30;;;;;;;12.13;9.77;;;;;;;;;;5094510;28;20545;-80
2022/04/14 11:55:57;;;;;;;12.97;9.73;;;;;;;;;;5094230;28;20505;-79
2022/04/14 11:58:25;;;;;;;12.83;9.63;;;;;;;;;;5094436;28;20874;-79
2022/04/14 12:00:53;;;;;;;16.27;11.07;;;;;;;;;;5094062;28;20445;-80
2022/04/14 12:03:31;;;;;;;12.60;9.30;;;;;;;;;;5093942;28;20540;-79
2022/04/14 12:06:02;;;;;;;14.27;10.27;;;;;;;;;;5093977;28;20503;-79
2022/04/14 12:08:30;;;;;;;13.00;9.80;;;;;;;;;;5094041;28;20443;-80
2022/04/14 12:10:57;;;;;;;10.70;8.73;;;;;;;;;;5094260;28;20922;-80
2022/04/14 12:13:24;;;;;;;11.73;9.60;;;;;;;;;;5094111;28;20799;-81
2022/04/14 12:16:06;;;;;;;11.27;8.23;;;;;;;;;;5093741;28;20493;-76
2022/04/14 12:18:33;;;;;;;13.37;8.67;;;;;;;;;;5093627;28;20433;-80
2022/04/14 12:21:00;;;;;;;11.10;7.90;;;;;;;;;;5094386;28;20453;-81
2022/04/14 12:23:27;;;;;;;10.33;8.03;;;;;;;;;;5093990;28;20451;-83
2022/04/14 12:25:56;;;;;;;15.73;10.90;;;;;;;;;;5093826;28;20451;-80
2022/04/14 12:28:24;;;;;;;10.30;8.73;;;;;;;;;;5095016;28;20464;-81
2022/04/14 12:30:51;;;;;;;10.80;8.80;;;;;;;;;;5094284;28;20482;-80
2022/04/14 12:33:26;;;;;;;11.67;9.17;;;;;;;;;;5093673;28;20440;-82
2022/04/14 12:35:53;;;;;;;11.67;8.10;;;;;;;;;;5093760;28;20433;-82
2022/04/14 12:38:22;;;;;;;10.47;8.87;;;;;;;;;;5093810;28;20444;-82
2022/04/14 12:40:56;;;;;;;9.60;8.60;;;;;;;;;;5093745;28;20447;-81
2022/04/14 12:43:23;;;;;;;12.73;8.80;;;;;;;;;;5093851;28;20441;-81
2022/04/14 12:45:50;;;;;;;13.80;9.10;;;;;;;;;;5093748;28;20799;-81
2022/04/14 12:48:29;;;;;;;12.60;9.90;;;;;;;;;;5094182;28;20516;-80
2022/04/14 12:50:57;;;;;;;11.33;9.97;;;;;;;;;;5094611;28;20480;-82
2022/04/14 12:53:25;;;;;;;12.13;9.70;;;;;;;;;;5094140;28;20536;-81
2022/04/14 12:55:53;;;;;;;9.97;8.73;;;;;;;;;;5094446;28;20444;-81
2022/04/14 12:58:20;;;;;;;11.07;9.53;;;;;;;;;;5094038;28;20542;-81
2022/04/14 13:00:47;;;;;;;12.53;9.97;;;;;;;;;;5093779;28;20440;-80
2022/04/14 13:03:14;;;;;;;10.60;9.50;;;;;;;;;;5093713;28;20453;-80
2022/04/14 13:05:43;;;;;;;11.60;9.90;;;;;;;;;;5093429;28;20444;-80
2022/04/14 13:08:11;;;;;;;12.30;8.30;;;;;;;;;;5093820;28;20450;-81
2022/04/14 13:10:40;;;;;;;11.87;8.97;;;;;;;;;;5094143;28;20473;-80
2022/04/14 13:13:07;;;;;;;15.20;9.40;;;;;;;;;;5094344;28;20441;-80
2022/04/14 13:15:35;;;;;;;10.53;9.40;;;;;;;;;;5093997;28;20852;-81
2022/04/14 13:18:03;;;;;;;10.13;8.30;;;;;;;;;;5093686;28;20795;-80
2022/04/14 13:20:34;;;;;;;9.30;7.90;;;;;;;;;;5093531;28;20812;-80
2022/04/14 13:23:02;;;;;;;10.10;8.33;;;;;;;;;;5092936;28;20781;-80
2022/04/14 13:25:30;;;;;;;12.43;8.70;;;;;;;;;;5093234;28;20539;-80
2022/04/14 13:27:57;;;;;;;10.40;8.53;;;;;;;;;;5093316;28;20533;-80
2022/04/14 13:30:24;;;;;;;11.10;8.10;;;;;;;;;;5093979;28;20559;-80
2022/04/14 13:32:51;;;;;;;11.03;8.30;;;;;;;;;;5093979;28;20450;-80
2022/04/14 13:35:20;;;;;;;10.10;8.10;;;;;;;;;;5093796;28;20439;-80
2022/04/14 13:37:47;;;;;;;13.13;9.27;;;;;;;;;;5093537;28;20443;-80
2022/04/14 13:40:16;;;;;;;11.00;6.97;;;;;;;;;;5091855;28;20460;-81
2022/04/14 13:42:43;;;;;;;11.57;8.60;;;;;;;;;;5092553;28;20443;-80
2022/04/14 13:45:11;;;;;;;11.53;8.00;;;;;;;;;;5092717;28;20470;-80
2022/04/14 13:47:39;;;;;;;12.10;7.20;;;;;;;;;;5093448;28;20492;-77
2022/04/14 13:50:07;;;;;;;10.40;7.20;;;;;;;;;;5092490;28;20441;-80
2022/04/14 13:52:35;;;;;;;11.37;7.83;;;;;;;;;;5093333;28;20949;-80
2022/04/14 13:55:02;;;;;;;11.77;9.40;;;;;;;;;;5093432;28;20512;-80
2022/04/14 13:57:30;;;;;;;9.40;8.40;;;;;;;;;;5092866;28;20444;-81
2022/04/14 13:59:58;;;;;;;14.47;8.50;;;;;;;;;;5092648;28;20941;-80
2022/04/14 14:02:25;;;;;;;17.90;8.23;;;;;;;;;;5092641;28;20471;-81
2022/04/14 14:04:52;;;;;;;12.80;8.30;;;;;;;;;;5092606;28;20444;-80
2022/04/14 14:07:19;;;;;;;13.33;7.67;;;;;;;;;;5092862;28;20440;-80
2022/04/14 14:09:46;;;;;;;9.40;7.90;;;;;;;;;;5093499;28;20450;-80
2022/04/14 14:12:14;;;;;;;11.63;7.20;;;;;;;;;;5093371;28;20519;-80
2022/04/14 14:14:43;;;;;;;8.37;7.40;;;;;;;;;;5093596;28;20526;-80
2022/04/14 14:17:10;;;;;;;9.40;7.83;;;;;;;;;;5092470;28;20449;-81
2022/04/14 14:19:37;;;;;;;11.03;7.20;;;;;;;;;;5092905;28;20448;-81
2022/04/14 14:22:05;;;;;;;10.83;8.47;;;;;;;;;;5091893;28;20531;-81
2022/04/14 14:24:32;;;;;;;10.97;8.30;;;;;;;;;;5091937;28;20925;-80